ETHL

Laupheim Airport

Germany
METAR ETHL 170736Z 20003KT 1300 R27/4100U BR OVC001 M01/M01 Q1020 RED RED
Observed Flight Rules
Dec-17 @ 07:36 UTC (28 minutes ago) Instrument Flight Rules
Wind Visibility Clouds Conditions
200° at 3 knots 1,304 meters
  • Overcast at 100' AGL
  • Mist
Temperatures Readings
Current -1°C / 30°F
Dewpoint -1°C / 30°F
Humidity 100%
Altimeter 30.12" Hg
Pressure 1020 hPa
Elevation 549
METAR ETHL 170736Z 20003KT 1300 R27/4100U BR OVC001 M01/M01 Q1020 RED RED
Observed Flight Rules
Dec-17 @ 07:36 UTC
(28 minutes ago)
LIFR
Wind Visibility
200° at 3 knots 1,304 meters
Clouds
  • Overcast at 100' AGL
Conditions
  • Mist
Temperature Dewpoint
-1°C / 30°F -1°C / 30°F
Humidity Altimeter Pressure
100% 30.12" Hg 1020 hPa